Terminal Aerodrome Forecast
Issued by NWS Charleston, SC

Home | Current Version | Previous Version | Text Only | Print | Product List | Glossary On
Versions: 1 2 3 4 5 6 7 8 9 10 11 12 13 14 15 16 17 18 19 20 21 22 23
000
FTUS42 KCHS 211241 AAB
TAFSAV
TAF AMD
KSAV 211241Z 2113/2212 22007KT P6SM VCSH SCT008 OVC015
      TEMPO 2113/2117 5SM SHRA BR BKN008
     FM211900 19011KT P6SM VCSH SCT015 BKN030
      TEMPO 2120/2124 5SM SHRA BR SCT010 OVC015
     FM220000 19008KT P6SM SCT008 BKN015 WS020/23035KT
     FM220900 20009KT P6SM VCSH SCT005 OVC010 WS020/23040KT=

USA.gov is the U.S. government's official web portal to all federal, state and local government web resources and services.